sensor_id;sensor_type;location;lat;lon;timestamp;P1;durP1;ratioP1;P2;durP2;ratioP2
67715;SDS011;54508;43.238;25.306;2022-12-18T00:01:37;7.33;;;4.43;;
67715;SDS011;54508;43.238;25.306;2022-12-18T00:04:06;5.93;;;4.13;;
67715;SDS011;54508;43.238;25.306;2022-12-18T00:06:33;5.43;;;3.92;;
67715;SDS011;54508;43.238;25.306;2022-12-18T00:09:00;6.10;;;4.60;;
67715;SDS011;54508;43.238;25.306;2022-12-18T00:11:27;6.53;;;4.80;;
67715;SDS011;54508;43.238;25.306;2022-12-18T00:13:54;6.80;;;4.43;;
67715;SDS011;54508;43.238;25.306;2022-12-18T00:16:21;5.88;;;3.85;;
67715;SDS011;54508;43.238;25.306;2022-12-18T00:18:48;5.32;;;4.00;;
67715;SDS011;54508;43.238;25.306;2022-12-18T00:21:15;5.72;;;4.10;;
67715;SDS011;54508;43.238;25.306;2022-12-18T00:23:41;6.27;;;4.43;;
67715;SDS011;54508;43.238;25.306;2022-12-18T00:26:10;6.13;;;4.15;;
67715;SDS011;54508;43.238;25.306;2022-12-18T00:28:43;5.80;;;4.10;;
67715;SDS011;54508;43.238;25.306;2022-12-18T00:31:13;9.13;;;4.20;;
67715;SDS011;54508;43.238;25.306;2022-12-18T00:33:40;6.60;;;4.15;;
67715;SDS011;54508;43.238;25.306;2022-12-18T00:36:13;5.80;;;4.30;;
67715;SDS011;54508;43.238;25.306;2022-12-18T00:38:40;6.95;;;4.97;;
67715;SDS011;54508;43.238;25.306;2022-12-18T00:41:07;6.00;;;3.95;;
67715;SDS011;54508;43.238;25.306;2022-12-18T00:43:33;5.63;;;3.93;;
67715;SDS011;54508;43.238;25.306;2022-12-18T00:45:58;5.15;;;3.72;;
67715;SDS011;54508;43.238;25.306;2022-12-18T00:48:24;7.60;;;3.97;;
67715;SDS011;54508;43.238;25.306;2022-12-18T00:50:49;6.80;;;4.20;;
67715;SDS011;54508;43.238;25.306;2022-12-18T00:53:15;6.78;;;4.22;;
67715;SDS011;54508;43.238;25.306;2022-12-18T00:55:41;5.13;;;4.17;;
67715;SDS011;54508;43.238;25.306;2022-12-18T00:58:07;5.88;;;4.50;;
67715;SDS011;54508;43.238;25.306;2022-12-18T01:00:34;6.82;;;4.68;;
67715;SDS011;54508;43.238;25.306;2022-12-18T01:02:59;8.20;;;4.30;;
67715;SDS011;54508;43.238;25.306;2022-12-18T01:05:25;7.30;;;4.70;;
67715;SDS011;54508;43.238;25.306;2022-12-18T01:07:50;7.33;;;4.50;;
67715;SDS011;54508;43.238;25.306;2022-12-18T01:10:16;7.03;;;4.33;;
67715;SDS011;54508;43.238;25.306;2022-12-18T01:12:41;6.00;;;4.50;;
67715;SDS011;54508;43.238;25.306;2022-12-18T01:15:07;6.13;;;4.57;;
67715;SDS011;54508;43.238;25.306;2022-12-18T01:17:34;6.43;;;4.45;;
67715;SDS011;54508;43.238;25.306;2022-12-18T01:19:59;7.53;;;4.80;;
67715;SDS011;54508;43.238;25.306;2022-12-18T01:22:25;6.23;;;3.90;;
67715;SDS011;54508;43.238;25.306;2022-12-18T01:24:50;7.03;;;4.63;;
67715;SDS011;54508;43.238;25.306;2022-12-18T01:27:16;6.53;;;4.50;;
67715;SDS011;54508;43.238;25.306;2022-12-18T01:29:41;6.97;;;4.25;;
67715;SDS011;54508;43.238;25.306;2022-12-18T01:32:07;6.33;;;4.43;;
67715;SDS011;54508;43.238;25.306;2022-12-18T01:34:33;6.10;;;3.88;;
67715;SDS011;54508;43.238;25.306;2022-12-18T01:37:01;6.40;;;3.90;;
67715;SDS011;54508;43.238;25.306;2022-12-18T01:39:27;6.47;;;4.07;;
67715;SDS011;54508;43.238;25.306;2022-12-18T01:41:53;6.50;;;4.17;;
67715;SDS011;54508;43.238;25.306;2022-12-18T01:50:10;7.20;;;4.10;;
67715;SDS011;54508;43.238;25.306;2022-12-18T01:52:36;6.35;;;4.35;;
67715;SDS011;54508;43.238;25.306;2022-12-18T01:55:02;7.25;;;4.72;;
67715;SDS011;54508;43.238;25.306;2022-12-18T01:57:29;6.27;;;4.40;;
67715;SDS011;54508;43.238;25.306;2022-12-18T01:59:57;5.28;;;4.00;;
67715;SDS011;54508;43.238;25.306;2022-12-18T02:02:26;5.97;;;4.20;;
67715;SDS011;54508;43.238;25.306;2022-12-18T02:04:53;6.30;;;4.03;;
67715;SDS011;54508;43.238;25.306;2022-12-18T02:09:53;6.35;;;3.95;;
67715;SDS011;54508;43.238;25.306;2022-12-18T02:12:24;6.60;;;4.13;;
67715;SDS011;54508;43.238;25.306;2022-12-18T02:15:00;6.15;;;4.18;;
67715;SDS011;54508;43.238;25.306;2022-12-18T02:17:56;6.47;;;4.10;;
67715;SDS011;54508;43.238;25.306;2022-12-18T02:20:40;7.18;;;4.18;;
67715;SDS011;54508;43.238;25.306;2022-12-18T02:26:16;8.30;;;4.53;;
67715;SDS011;54508;43.238;25.306;2022-12-18T02:29:11;7.93;;;4.47;;
67715;SDS011;54508;43.238;25.306;2022-12-18T02:31:42;6.77;;;4.20;;
67715;SDS011;54508;43.238;25.306;2022-12-18T02:34:10;5.68;;;4.47;;
67715;SDS011;54508;43.238;25.306;2022-12-18T02:36:38;6.10;;;4.28;;
67715;SDS011;54508;43.238;25.306;2022-12-18T02:39:05;5.90;;;4.00;;
67715;SDS011;54508;43.238;25.306;2022-12-18T02:41:32;5.35;;;3.90;;
67715;SDS011;54508;43.238;25.306;2022-12-18T02:43:59;7.10;;;4.00;;
67715;SDS011;54508;43.238;25.306;2022-12-18T02:50:13;6.60;;;4.47;;
67715;SDS011;54508;43.238;25.306;2022-12-18T02:52:25;6.77;;;4.10;;
67715;SDS011;54508;43.238;25.306;2022-12-18T02:55:07;7.22;;;4.03;;
67715;SDS011;54508;43.238;25.306;2022-12-18T02:57:49;6.88;;;4.32;;
67715;SDS011;54508;43.238;25.306;2022-12-18T03:00:20;6.18;;;4.53;;
67715;SDS011;54508;43.238;25.306;2022-12-18T03:05:20;6.37;;;4.33;;
67715;SDS011;54508;43.238;25.306;2022-12-18T03:07:52;6.97;;;4.30;;
67715;SDS011;54508;43.238;25.306;2022-12-18T03:10:23;7.05;;;4.93;;
67715;SDS011;54508;43.238;25.306;2022-12-18T03:12:52;8.90;;;4.60;;
67715;SDS011;54508;43.238;25.306;2022-12-18T03:15:24;6.93;;;4.65;;
67715;SDS011;54508;43.238;25.306;2022-12-18T03:18:07;7.43;;;4.97;;
67715;SDS011;54508;43.238;25.306;2022-12-18T03:20:36;7.72;;;4.53;;
67715;SDS011;54508;43.238;25.306;2022-12-18T03:23:07;6.40;;;4.63;;
67715;SDS011;54508;43.238;25.306;2022-12-18T03:25:39;7.70;;;4.60;;
67715;SDS011;54508;43.238;25.306;2022-12-18T03:28:06;7.45;;;4.80;;
67715;SDS011;54508;43.238;25.306;2022-12-18T03:30:34;6.63;;;4.47;;
67715;SDS011;54508;43.238;25.306;2022-12-18T03:33:07;8.30;;;4.68;;
67715;SDS011;54508;43.238;25.306;2022-12-18T03:35:37;6.88;;;4.50;;
67715;SDS011;54508;43.238;25.306;2022-12-18T03:38:04;7.30;;;4.47;;
67715;SDS011;54508;43.238;25.306;2022-12-18T03:40:33;8.27;;;4.73;;
67715;SDS011;54508;43.238;25.306;2022-12-18T03:43:25;8.75;;;5.32;;
67715;SDS011;54508;43.238;25.306;2022-12-18T03:46:12;8.02;;;5.03;;
67715;SDS011;54508;43.238;25.306;2022-12-18T03:48:43;6.38;;;4.35;;
67715;SDS011;54508;43.238;25.306;2022-12-18T03:51:14;6.43;;;4.63;;
67715;SDS011;54508;43.238;25.306;2022-12-18T03:54:00;6.47;;;4.43;;
67715;SDS011;54508;43.238;25.306;2022-12-18T03:56:29;6.97;;;4.25;;
67715;SDS011;54508;43.238;25.306;2022-12-18T03:58:57;8.45;;;5.05;;
67715;SDS011;54508;43.238;25.306;2022-12-18T04:01:26;8.32;;;4.97;;
67715;SDS011;54508;43.238;25.306;2022-12-18T04:03:56;7.85;;;4.75;;
67715;SDS011;54508;43.238;25.306;2022-12-18T04:06:24;7.57;;;5.20;;
67715;SDS011;54508;43.238;25.306;2022-12-18T04:08:50;7.47;;;4.78;;
67715;SDS011;54508;43.238;25.306;2022-12-18T04:11:16;8.00;;;5.40;;
67715;SDS011;54508;43.238;25.306;2022-12-18T04:13:42;8.70;;;5.33;;
67715;SDS011;54508;43.238;25.306;2022-12-18T04:16:07;6.93;;;5.00;;
67715;SDS011;54508;43.238;25.306;2022-12-18T04:18:34;8.30;;;5.05;;
67715;SDS011;54508;43.238;25.306;2022-12-18T04:21:01;7.32;;;5.45;;
67715;SDS011;54508;43.238;25.306;2022-12-18T04:23:27;7.88;;;5.20;;
67715;SDS011;54508;43.238;25.306;2022-12-18T04:25:53;8.20;;;5.53;;
67715;SDS011;54508;43.238;25.306;2022-12-18T04:28:19;8.60;;;5.23;;
67715;SDS011;54508;43.238;25.306;2022-12-18T04:30:44;9.85;;;5.28;;
67715;SDS011;54508;43.238;25.306;2022-12-18T04:33:13;8.07;;;5.10;;
67715;SDS011;54508;43.238;25.306;2022-12-18T04:35:41;7.47;;;4.97;;
67715;SDS011;54508;43.238;25.306;2022-12-18T04:38:07;8.00;;;5.63;;
67715;SDS011;54508;43.238;25.306;2022-12-18T04:40:35;8.40;;;4.77;;
67715;SDS011;54508;43.238;25.306;2022-12-18T04:43:01;8.00;;;5.15;;
67715;SDS011;54508;43.238;25.306;2022-12-18T04:45:27;7.60;;;5.45;;
67715;SDS011;54508;43.238;25.306;2022-12-18T04:47:52;6.90;;;4.80;;
67715;SDS011;54508;43.238;25.306;2022-12-18T04:50:18;8.37;;;5.37;;
67715;SDS011;54508;43.238;25.306;2022-12-18T04:52:43;8.80;;;5.13;;
67715;SDS011;54508;43.238;25.306;2022-12-18T04:55:09;8.90;;;5.13;;
67715;SDS011;54508;43.238;25.306;2022-12-18T04:57:36;7.60;;;5.65;;
67715;SDS011;54508;43.238;25.306;2022-12-18T05:00:01;9.40;;;5.00;;
67715;SDS011;54508;43.238;25.306;2022-12-18T05:02:27;8.38;;;5.72;;
67715;SDS011;54508;43.238;25.306;2022-12-18T05:04:53;8.00;;;5.20;;
67715;SDS011;54508;43.238;25.306;2022-12-18T05:07:18;9.17;;;5.27;;
67715;SDS011;54508;43.238;25.306;2022-12-18T05:09:44;8.93;;;6.00;;
67715;SDS011;54508;43.238;25.306;2022-12-18T05:12:09;9.40;;;5.60;;
67715;SDS011;54508;43.238;25.306;2022-12-18T05:14:35;10.47;;;5.40;;
67715;SDS011;54508;43.238;25.306;2022-12-18T05:17:00;10.33;;;5.87;;
67715;SDS011;54508;43.238;25.306;2022-12-18T05:19:26;7.40;;;5.60;;
67715;SDS011;54508;43.238;25.306;2022-12-18T05:21:51;7.93;;;5.63;;
67715;SDS011;54508;43.238;25.306;2022-12-18T05:24:16;10.55;;;5.82;;
67715;SDS011;54508;43.238;25.306;2022-12-18T05:26:42;10.10;;;6.23;;
67715;SDS011;54508;43.238;25.306;2022-12-18T05:29:07;9.07;;;5.37;;
67715;SDS011;54508;43.238;25.306;2022-12-18T05:31:33;10.03;;;6.33;;
67715;SDS011;54508;43.238;25.306;2022-12-18T05:33:58;8.68;;;5.38;;
67715;SDS011;54508;43.238;25.306;2022-12-18T05:36:24;9.80;;;6.23;;
67715;SDS011;54508;43.238;25.306;2022-12-18T05:38:49;8.47;;;5.77;;
67715;SDS011;54508;43.238;25.306;2022-12-18T05:41:15;8.90;;;5.80;;
67715;SDS011;54508;43.238;25.306;2022-12-18T05:43:40;8.68;;;6.47;;
67715;SDS011;54508;43.238;25.306;2022-12-18T05:46:14;8.40;;;5.90;;
67715;SDS011;54508;43.238;25.306;2022-12-18T05:48:41;9.45;;;5.78;;
67715;SDS011;54508;43.238;25.306;2022-12-18T05:51:08;9.68;;;5.80;;
67715;SDS011;54508;43.238;25.306;2022-12-18T05:53:35;8.73;;;5.70;;
67715;SDS011;54508;43.238;25.306;2022-12-18T05:56:02;13.73;;;5.80;;
67715;SDS011;54508;43.238;25.306;2022-12-18T05:58:29;11.18;;;5.85;;
67715;SDS011;54508;43.238;25.306;2022-12-18T06:00:55;10.30;;;6.13;;
67715;SDS011;54508;43.238;25.306;2022-12-18T06:03:20;10.37;;;6.77;;
67715;SDS011;54508;43.238;25.306;2022-12-18T06:05:45;8.77;;;5.80;;
67715;SDS011;54508;43.238;25.306;2022-12-18T06:08:12;12.53;;;6.50;;
67715;SDS011;54508;43.238;25.306;2022-12-18T06:10:38;11.50;;;6.90;;
67715;SDS011;54508;43.238;25.306;2022-12-18T06:13:04;9.68;;;6.63;;
67715;SDS011;54508;43.238;25.306;2022-12-18T06:15:29;10.15;;;6.38;;
67715;SDS011;54508;43.238;25.306;2022-12-18T06:17:55;10.00;;;6.28;;
67715;SDS011;54508;43.238;25.306;2022-12-18T06:20:20;10.50;;;6.57;;
67715;SDS011;54508;43.238;25.306;2022-12-18T06:22:46;11.23;;;6.50;;
67715;SDS011;54508;43.238;25.306;2022-12-18T06:25:11;11.15;;;6.70;;
67715;SDS011;54508;43.238;25.306;2022-12-18T06:27:37;12.10;;;6.53;;
67715;SDS011;54508;43.238;25.306;2022-12-18T06:30:03;10.80;;;7.10;;
67715;SDS011;54508;43.238;25.306;2022-12-18T06:32:29;12.65;;;7.05;;
67715;SDS011;54508;43.238;25.306;2022-12-18T06:34:55;11.85;;;7.45;;
67715;SDS011;54508;43.238;25.306;2022-12-18T06:37:21;11.27;;;6.77;;
67715;SDS011;54508;43.238;25.306;2022-12-18T06:39:49;11.05;;;7.00;;
67715;SDS011;54508;43.238;25.306;2022-12-18T06:42:15;10.70;;;6.67;;
67715;SDS011;54508;43.238;25.306;2022-12-18T06:44:40;11.13;;;6.70;;
67715;SDS011;54508;43.238;25.306;2022-12-18T06:47:06;10.70;;;6.80;;
67715;SDS011;54508;43.238;25.306;2022-12-18T06:49:31;11.17;;;6.90;;
67715;SDS011;54508;43.238;25.306;2022-12-18T06:51:57;10.73;;;7.00;;
67715;SDS011;54508;43.238;25.306;2022-12-18T06:54:22;12.00;;;7.13;;
67715;SDS011;54508;43.238;25.306;2022-12-18T06:56:47;11.82;;;7.03;;
67715;SDS011;54508;43.238;25.306;2022-12-18T06:59:13;10.83;;;6.80;;
67715;SDS011;54508;43.238;25.306;2022-12-18T07:01:39;12.20;;;7.18;;
67715;SDS011;54508;43.238;25.306;2022-12-18T07:04:05;11.47;;;7.17;;
67715;SDS011;54508;43.238;25.306;2022-12-18T07:06:30;10.73;;;6.93;;
67715;SDS011;54508;43.238;25.306;2022-12-18T07:08:56;13.97;;;7.30;;
67715;SDS011;54508;43.238;25.306;2022-12-18T07:11:21;14.32;;;7.85;;
67715;SDS011;54508;43.238;25.306;2022-12-18T07:13:47;13.27;;;8.03;;
67715;SDS011;54508;43.238;25.306;2022-12-18T07:16:16;12.48;;;8.30;;
67715;SDS011;54508;43.238;25.306;2022-12-18T07:18:43;12.18;;;7.63;;
67715;SDS011;54508;43.238;25.306;2022-12-18T07:21:14;11.98;;;7.53;;
67715;SDS011;54508;43.238;25.306;2022-12-18T07:23:40;13.70;;;7.38;;
67715;SDS011;54508;43.238;25.306;2022-12-18T07:26:07;14.68;;;8.10;;
67715;SDS011;54508;43.238;25.306;2022-12-18T07:28:35;12.27;;;8.13;;
67715;SDS011;54508;43.238;25.306;2022-12-18T07:31:05;12.70;;;8.48;;
67715;SDS011;54508;43.238;25.306;2022-12-18T07:33:32;12.52;;;7.80;;
67715;SDS011;54508;43.238;25.306;2022-12-18T07:36:04;13.85;;;8.38;;
67715;SDS011;54508;43.238;25.306;2022-12-18T07:38:31;13.45;;;7.97;;
67715;SDS011;54508;43.238;25.306;2022-12-18T07:41:01;12.63;;;7.83;;
67715;SDS011;54508;43.238;25.306;2022-12-18T07:43:31;14.05;;;8.23;;
67715;SDS011;54508;43.238;25.306;2022-12-18T07:45:56;12.85;;;8.07;;
67715;SDS011;54508;43.238;25.306;2022-12-18T07:48:22;14.27;;;7.63;;
67715;SDS011;54508;43.238;25.306;2022-12-18T07:50:47;12.97;;;7.80;;
67715;SDS011;54508;43.238;25.306;2022-12-18T07:56:27;12.40;;;7.93;;
67715;SDS011;54508;43.238;25.306;2022-12-18T07:58:53;13.63;;;8.20;;
67715;SDS011;54508;43.238;25.306;2022-12-18T08:01:18;12.05;;;7.82;;
67715;SDS011;54508;43.238;25.306;2022-12-18T08:03:44;14.27;;;8.80;;
67715;SDS011;54508;43.238;25.306;2022-12-18T08:06:09;13.40;;;8.60;;
67715;SDS011;54508;43.238;25.306;2022-12-18T08:08:35;14.98;;;8.20;;
67715;SDS011;54508;43.238;25.306;2022-12-18T08:11:01;13.80;;;9.23;;
67715;SDS011;54508;43.238;25.306;2022-12-18T08:13:27;14.48;;;8.90;;
67715;SDS011;54508;43.238;25.306;2022-12-18T08:16:03;13.77;;;8.32;;
67715;SDS011;54508;43.238;25.306;2022-12-18T08:18:31;14.23;;;8.85;;
67715;SDS011;54508;43.238;25.306;2022-12-18T08:20:57;13.43;;;8.85;;
67715;SDS011;54508;43.238;25.306;2022-12-18T08:23:23;14.93;;;9.17;;
67715;SDS011;54508;43.238;25.306;2022-12-18T08:25:48;15.93;;;8.73;;
67715;SDS011;54508;43.238;25.306;2022-12-18T08:28:14;14.27;;;8.77;;
67715;SDS011;54508;43.238;25.306;2022-12-18T08:30:40;16.15;;;8.43;;
67715;SDS011;54508;43.238;25.306;2022-12-18T08:33:05;15.40;;;8.53;;
67715;SDS011;54508;43.238;25.306;2022-12-18T08:35:34;13.07;;;8.70;;
67715;SDS011;54508;43.238;25.306;2022-12-18T08:38:00;17.52;;;9.77;;
67715;SDS011;54508;43.238;25.306;2022-12-18T08:40:26;15.13;;;8.37;;
67715;SDS011;54508;43.238;25.306;2022-12-18T08:42:51;13.80;;;8.10;;
67715;SDS011;54508;43.238;25.306;2022-12-18T08:45:35;15.33;;;8.80;;
67715;SDS011;54508;43.238;25.306;2022-12-18T08:48:01;14.50;;;8.57;;
67715;SDS011;54508;43.238;25.306;2022-12-18T08:50:26;15.33;;;9.53;;
67715;SDS011;54508;43.238;25.306;2022-12-18T08:52:51;14.63;;;9.10;;
67715;SDS011;54508;43.238;25.306;2022-12-18T08:55:17;13.87;;;9.27;;
67715;SDS011;54508;43.238;25.306;2022-12-18T08:57:42;14.35;;;9.18;;
67715;SDS011;54508;43.238;25.306;2022-12-18T09:00:08;13.93;;;8.87;;
67715;SDS011;54508;43.238;25.306;2022-12-18T09:02:34;13.63;;;8.60;;
67715;SDS011;54508;43.238;25.306;2022-12-18T09:04:59;15.20;;;9.20;;
67715;SDS011;54508;43.238;25.306;2022-12-18T09:07:25;14.13;;;9.10;;
67715;SDS011;54508;43.238;25.306;2022-12-18T09:09:50;15.57;;;8.77;;
67715;SDS011;54508;43.238;25.306;2022-12-18T09:12:16;15.27;;;8.95;;
67715;SDS011;54508;43.238;25.306;2022-12-18T09:14:41;13.90;;;8.83;;
67715;SDS011;54508;43.238;25.306;2022-12-18T09:17:07;15.17;;;9.17;;
67715;SDS011;54508;43.238;25.306;2022-12-18T09:19:32;13.43;;;8.23;;
67715;SDS011;54508;43.238;25.306;2022-12-18T09:21:58;14.70;;;10.00;;
67715;SDS011;54508;43.238;25.306;2022-12-18T09:24:23;12.40;;;8.03;;
67715;SDS011;54508;43.238;25.306;2022-12-18T09:26:52;16.47;;;9.27;;
67715;SDS011;54508;43.238;25.306;2022-12-18T09:29:19;14.30;;;8.82;;
67715;SDS011;54508;43.238;25.306;2022-12-18T09:31:44;15.53;;;9.47;;
67715;SDS011;54508;43.238;25.306;2022-12-18T09:34:10;14.40;;;8.48;;
67715;SDS011;54508;43.238;25.306;2022-12-18T09:36:35;16.27;;;8.80;;
67715;SDS011;54508;43.238;25.306;2022-12-18T09:39:01;15.23;;;8.50;;
67715;SDS011;54508;43.238;25.306;2022-12-18T09:46:45;19.92;;;8.85;;
67715;SDS011;54508;43.238;25.306;2022-12-18T09:49:17;15.05;;;7.57;;
67715;SDS011;54508;43.238;25.306;2022-12-18T09:51:57;11.85;;;8.05;;
67715;SDS011;54508;43.238;25.306;2022-12-18T09:54:40;14.80;;;8.52;;
67715;SDS011;54508;43.238;25.306;2022-12-18T09:57:06;12.65;;;8.23;;
67715;SDS011;54508;43.238;25.306;2022-12-18T09:59:38;12.85;;;7.68;;
67715;SDS011;54508;43.238;25.306;2022-12-18T10:04:43;14.85;;;8.65;;
67715;SDS011;54508;43.238;25.306;2022-12-18T10:07:16;14.63;;;8.73;;
67715;SDS011;54508;43.238;25.306;2022-12-18T10:10:12;12.27;;;7.50;;
67715;SDS011;54508;43.238;25.306;2022-12-18T10:12:51;12.77;;;8.68;;
67715;SDS011;54508;43.238;25.306;2022-12-18T10:18:22;11.77;;;8.10;;
67715;SDS011;54508;43.238;25.306;2022-12-18T10:20:50;13.67;;;8.23;;
67715;SDS011;54508;43.238;25.306;2022-12-18T10:26:10;13.57;;;8.60;;
67715;SDS011;54508;43.238;25.306;2022-12-18T10:28:38;12.70;;;8.27;;
67715;SDS011;54508;43.238;25.306;2022-12-18T10:31:05;12.20;;;8.23;;
67715;SDS011;54508;43.238;25.306;2022-12-18T10:33:41;11.63;;;7.10;;
67715;SDS011;54508;43.238;25.306;2022-12-18T10:36:07;12.25;;;7.72;;
67715;SDS011;54508;43.238;25.306;2022-12-18T10:38:33;12.77;;;8.07;;
67715;SDS011;54508;43.238;25.306;2022-12-18T10:41:00;14.50;;;7.78;;
67715;SDS011;54508;43.238;25.306;2022-12-18T10:46:41;13.38;;;7.45;;
67715;SDS011;54508;43.238;25.306;2022-12-18T10:49:07;12.20;;;7.70;;
67715;SDS011;54508;43.238;25.306;2022-12-18T10:51:43;15.25;;;8.40;;
67715;SDS011;54508;43.238;25.306;2022-12-18T10:54:21;14.43;;;7.60;;
67715;SDS011;54508;43.238;25.306;2022-12-18T10:56:47;16.08;;;7.80;;
67715;SDS011;54508;43.238;25.306;2022-12-18T10:59:14;16.95;;;8.07;;
67715;SDS011;54508;43.238;25.306;2022-12-18T11:01:53;14.27;;;7.38;;
67715;SDS011;54508;43.238;25.306;2022-12-18T11:07:01;16.10;;;7.93;;
67715;SDS011;54508;43.238;25.306;2022-12-18T11:09:35;17.15;;;8.48;;
67715;SDS011;54508;43.238;25.306;2022-12-18T11:12:14;12.95;;;7.97;;
67715;SDS011;54508;43.238;25.306;2022-12-18T11:14:47;20.25;;;7.93;;
67715;SDS011;54508;43.238;25.306;2022-12-18T11:17:20;12.52;;;7.85;;
67715;SDS011;54508;43.238;25.306;2022-12-18T11:19:55;18.42;;;8.07;;
67715;SDS011;54508;43.238;25.306;2022-12-18T11:22:26;17.05;;;8.13;;
67715;SDS011;54508;43.238;25.306;2022-12-18T11:25:06;14.20;;;8.32;;
67715;SDS011;54508;43.238;25.306;2022-12-18T11:27:51;14.85;;;9.13;;
67715;SDS011;54508;43.238;25.306;2022-12-18T11:30:29;15.13;;;8.55;;
67715;SDS011;54508;43.238;25.306;2022-12-18T11:38:27;14.80;;;8.88;;
67715;SDS011;54508;43.238;25.306;2022-12-18T11:41:15;15.25;;;8.27;;
67715;SDS011;54508;43.238;25.306;2022-12-18T11:44:01;12.80;;;8.20;;
67715;SDS011;54508;43.238;25.306;2022-12-18T11:46:32;18.17;;;9.18;;
67715;SDS011;54508;43.238;25.306;2022-12-18T11:49:03;14.55;;;8.27;;
67715;SDS011;54508;43.238;25.306;2022-12-18T11:51:34;16.45;;;8.20;;
67715;SDS011;54508;43.238;25.306;2022-12-18T11:54:21;13.80;;;8.65;;
67715;SDS011;54508;43.238;25.306;2022-12-18T12:01:52;15.73;;;8.82;;
67715;SDS011;54508;43.238;25.306;2022-12-18T12:04:39;15.85;;;8.43;;
67715;SDS011;54508;43.238;25.306;2022-12-18T12:18:48;15.65;;;9.00;;
67715;SDS011;54508;43.238;25.306;2022-12-18T12:24:28;13.57;;;8.43;;
67715;SDS011;54508;43.238;25.306;2022-12-18T12:29:33;18.35;;;8.48;;
67715;SDS011;54508;43.238;25.306;2022-12-18T12:32:44;13.05;;;8.68;;
67715;SDS011;54508;43.238;25.306;2022-12-18T12:38:41;16.67;;;8.55;;
67715;SDS011;54508;43.238;25.306;2022-12-18T12:41:09;14.82;;;8.85;;
67715;SDS011;54508;43.238;25.306;2022-12-18T12:43:58;14.57;;;8.65;;
67715;SDS011;54508;43.238;25.306;2022-12-18T12:46:27;15.52;;;9.23;;
67715;SDS011;54508;43.238;25.306;2022-12-18T12:48:54;14.65;;;8.60;;
67715;SDS011;54508;43.238;25.306;2022-12-18T12:51:22;14.23;;;8.70;;
67715;SDS011;54508;43.238;25.306;2022-12-18T12:53:48;16.80;;;8.73;;
67715;SDS011;54508;43.238;25.306;2022-12-18T12:56:15;17.52;;;9.43;;
67715;SDS011;54508;43.238;25.306;2022-12-18T13:09:18;14.20;;;8.68;;
67715;SDS011;54508;43.238;25.306;2022-12-18T13:11:46;15.67;;;9.07;;
67715;SDS011;54508;43.238;25.306;2022-12-18T13:14:31;15.88;;;8.30;;
67715;SDS011;54508;43.238;25.306;2022-12-18T13:20:06;14.80;;;8.50;;
67715;SDS011;54508;43.238;25.306;2022-12-18T13:22:38;13.35;;;8.63;;
67715;SDS011;54508;43.238;25.306;2022-12-18T13:28:00;15.02;;;8.80;;
67715;SDS011;54508;43.238;25.306;2022-12-18T13:38:21;14.60;;;8.95;;
67715;SDS011;54508;43.238;25.306;2022-12-18T13:45:44;16.92;;;9.45;;
67715;SDS011;54508;43.238;25.306;2022-12-18T13:48:14;14.43;;;8.85;;
67715;SDS011;54508;43.238;25.306;2022-12-18T13:50:48;15.00;;;8.50;;
67715;SDS011;54508;43.238;25.306;2022-12-18T13:53:26;18.58;;;9.65;;
67715;SDS011;54508;43.238;25.306;2022-12-18T13:55:56;16.10;;;9.43;;
67715;SDS011;54508;43.238;25.306;2022-12-18T13:58:22;14.80;;;9.05;;
67715;SDS011;54508;43.238;25.306;2022-12-18T14:00:47;17.07;;;9.67;;
67715;SDS011;54508;43.238;25.306;2022-12-18T14:03:20;16.17;;;9.33;;
67715;SDS011;54508;43.238;25.306;2022-12-18T14:05:52;13.40;;;8.98;;
67715;SDS011;54508;43.238;25.306;2022-12-18T14:08:22;15.02;;;8.75;;
67715;SDS011;54508;43.238;25.306;2022-12-18T14:10:52;14.07;;;8.82;;
67715;SDS011;54508;43.238;25.306;2022-12-18T14:13:24;14.30;;;8.93;;
67715;SDS011;54508;43.238;25.306;2022-12-18T14:15:54;14.90;;;9.05;;
67715;SDS011;54508;43.238;25.306;2022-12-18T14:20:59;15.60;;;9.13;;
67715;SDS011;54508;43.238;25.306;2022-12-18T14:23:40;16.30;;;9.25;;
67715;SDS011;54508;43.238;25.306;2022-12-18T14:26:20;13.75;;;9.40;;
67715;SDS011;54508;43.238;25.306;2022-12-18T14:29:41;17.73;;;9.68;;
67715;SDS011;54508;43.238;25.306;2022-12-18T14:34:35;16.10;;;9.07;;
67715;SDS011;54508;43.238;25.306;2022-12-18T14:37:01;17.88;;;9.13;;
67715;SDS011;54508;43.238;25.306;2022-12-18T14:39:26;17.97;;;9.37;;
67715;SDS011;54508;43.238;25.306;2022-12-18T14:41:52;17.00;;;10.33;;
67715;SDS011;54508;43.238;25.306;2022-12-18T14:44:18;16.25;;;10.18;;
67715;SDS011;54508;43.238;25.306;2022-12-18T14:46:47;15.60;;;9.23;;
67715;SDS011;54508;43.238;25.306;2022-12-18T14:49:32;16.17;;;10.20;;
67715;SDS011;54508;43.238;25.306;2022-12-18T14:52:03;16.73;;;9.88;;
67715;SDS011;54508;43.238;25.306;2022-12-18T14:54:30;15.65;;;9.57;;
67715;SDS011;54508;43.238;25.306;2022-12-18T14:57:00;17.03;;;10.10;;
67715;SDS011;54508;43.238;25.306;2022-12-18T14:59:27;18.30;;;10.40;;
67715;SDS011;54508;43.238;25.306;2022-12-18T15:04:47;18.02;;;10.23;;
67715;SDS011;54508;43.238;25.306;2022-12-18T15:12:42;21.38;;;9.90;;
67715;SDS011;54508;43.238;25.306;2022-12-18T15:15:44;15.98;;;9.93;;
67715;SDS011;54508;43.238;25.306;2022-12-18T15:26:12;17.70;;;11.18;;
67715;SDS011;54508;43.238;25.306;2022-12-18T15:28:57;20.27;;;11.10;;
67715;SDS011;54508;43.238;25.306;2022-12-18T15:31:28;18.15;;;11.00;;
67715;SDS011;54508;43.238;25.306;2022-12-18T15:34:01;20.45;;;10.88;;
67715;SDS011;54508;43.238;25.306;2022-12-18T15:36:32;19.23;;;11.32;;
67715;SDS011;54508;43.238;25.306;2022-12-18T15:39:01;14.88;;;10.43;;
67715;SDS011;54508;43.238;25.306;2022-12-18T15:41:27;19.17;;;11.13;;
67715;SDS011;54508;43.238;25.306;2022-12-18T15:43:53;18.98;;;11.25;;
67715;SDS011;54508;43.238;25.306;2022-12-18T15:46:19;19.07;;;11.83;;
67715;SDS011;54508;43.238;25.306;2022-12-18T15:48:47;18.67;;;10.95;;
67715;SDS011;54508;43.238;25.306;2022-12-18T15:53:54;18.00;;;10.30;;
67715;SDS011;54508;43.238;25.306;2022-12-18T15:56:21;17.05;;;9.90;;
67715;SDS011;54508;43.238;25.306;2022-12-18T15:59:13;17.25;;;10.80;;
67715;SDS011;54508;43.238;25.306;2022-12-18T16:01:39;17.65;;;10.90;;
67715;SDS011;54508;43.238;25.306;2022-12-18T16:04:05;20.55;;;11.18;;
67715;SDS011;54508;43.238;25.306;2022-12-18T16:06:31;17.13;;;11.30;;
67715;SDS011;54508;43.238;25.306;2022-12-18T16:08:56;17.47;;;10.70;;
67715;SDS011;54508;43.238;25.306;2022-12-18T16:14:24;18.30;;;10.40;;
67715;SDS011;54508;43.238;25.306;2022-12-18T16:16:53;19.92;;;11.43;;
67715;SDS011;54508;43.238;25.306;2022-12-18T16:19:20;19.45;;;11.38;;
67715;SDS011;54508;43.238;25.306;2022-12-18T16:21:50;18.35;;;11.05;;
67715;SDS011;54508;43.238;25.306;2022-12-18T16:24:30;21.45;;;12.30;;
67715;SDS011;54508;43.238;25.306;2022-12-18T16:26:57;21.25;;;13.10;;
67715;SDS011;54508;43.238;25.306;2022-12-18T16:29:24;19.58;;;12.45;;
67715;SDS011;54508;43.238;25.306;2022-12-18T16:31:59;20.95;;;12.80;;
67715;SDS011;54508;43.238;25.306;2022-12-18T16:36:53;24.52;;;13.45;;
67715;SDS011;54508;43.238;25.306;2022-12-18T16:39:20;22.25;;;13.85;;
67715;SDS011;54508;43.238;25.306;2022-12-18T16:41:46;21.73;;;13.27;;
67715;SDS011;54508;43.238;25.306;2022-12-18T16:44:12;23.50;;;12.82;;
67715;SDS011;54508;43.238;25.306;2022-12-18T16:46:38;24.43;;;12.63;;
67715;SDS011;54508;43.238;25.306;2022-12-18T16:49:04;23.23;;;13.32;;